sensor_id;sensor_type;location;lat;lon;timestamp;P1;durP1;ratioP1;P2;durP2;ratioP2
80621;SDS011;69980;51.914;7.526;2023-09-12T00:01:12;10.63;;;8.20;;
80621;SDS011;69980;51.914;7.526;2023-09-12T00:03:38;9.63;;;8.30;;
80621;SDS011;69980;51.914;7.526;2023-09-12T00:06:03;11.48;;;9.07;;
80621;SDS011;69980;51.914;7.526;2023-09-12T00:08:29;10.93;;;8.57;;
80621;SDS011;69980;51.914;7.526;2023-09-12T00:10:58;11.00;;;8.40;;
80621;SDS011;69980;51.914;7.526;2023-09-12T00:13:27;11.77;;;8.43;;
80621;SDS011;69980;51.914;7.526;2023-09-12T00:15:52;14.95;;;11.52;;
80621;SDS011;69980;51.914;7.526;2023-09-12T00:18:18;12.68;;;10.18;;
80621;SDS011;69980;51.914;7.526;2023-09-12T00:20:43;15.23;;;11.35;;
80621;SDS011;69980;51.914;7.526;2023-09-12T00:23:08;14.38;;;11.82;;
80621;SDS011;69980;51.914;7.526;2023-09-12T00:25:33;14.63;;;10.95;;
80621;SDS011;69980;51.914;7.526;2023-09-12T00:27:59;15.23;;;12.43;;
80621;SDS011;69980;51.914;7.526;2023-09-12T00:30:24;13.73;;;11.30;;
80621;SDS011;69980;51.914;7.526;2023-09-12T00:32:50;14.30;;;11.82;;
80621;SDS011;69980;51.914;7.526;2023-09-12T00:35:15;14.75;;;12.52;;
80621;SDS011;69980;51.914;7.526;2023-09-12T00:37:40;15.52;;;13.35;;
80621;SDS011;69980;51.914;7.526;2023-09-12T00:40:06;18.75;;;15.77;;
80621;SDS011;69980;51.914;7.526;2023-09-12T00:42:32;21.80;;;16.90;;
80621;SDS011;69980;51.914;7.526;2023-09-12T00:44:57;26.73;;;20.92;;
80621;SDS011;69980;51.914;7.526;2023-09-12T00:47:22;30.00;;;24.02;;
80621;SDS011;69980;51.914;7.526;2023-09-12T00:49:48;30.63;;;23.65;;
80621;SDS011;69980;51.914;7.526;2023-09-12T00:52:15;27.63;;;22.23;;
80621;SDS011;69980;51.914;7.526;2023-09-12T00:54:41;25.40;;;20.73;;
80621;SDS011;69980;51.914;7.526;2023-09-12T00:57:06;27.08;;;21.88;;
80621;SDS011;69980;51.914;7.526;2023-09-12T00:59:32;28.98;;;22.48;;
80621;SDS011;69980;51.914;7.526;2023-09-12T01:01:57;31.55;;;24.30;;
80621;SDS011;69980;51.914;7.526;2023-09-12T01:04:23;28.40;;;21.95;;
80621;SDS011;69980;51.914;7.526;2023-09-12T01:06:49;33.75;;;25.70;;
80621;SDS011;69980;51.914;7.526;2023-09-12T01:09:14;35.25;;;24.52;;
80621;SDS011;69980;51.914;7.526;2023-09-12T01:11:39;30.25;;;23.83;;
80621;SDS011;69980;51.914;7.526;2023-09-12T01:14:05;32.63;;;24.30;;
80621;SDS011;69980;51.914;7.526;2023-09-12T01:16:31;32.88;;;24.83;;
80621;SDS011;69980;51.914;7.526;2023-09-12T01:18:56;33.13;;;24.75;;
80621;SDS011;69980;51.914;7.526;2023-09-12T01:21:27;32.72;;;25.58;;
80621;SDS011;69980;51.914;7.526;2023-09-12T01:29:44;29.35;;;22.02;;
80621;SDS011;69980;51.914;7.526;2023-09-12T01:32:11;27.65;;;22.35;;
80621;SDS011;69980;51.914;7.526;2023-09-12T01:34:37;28.60;;;22.20;;
80621;SDS011;69980;51.914;7.526;2023-09-12T01:37:02;33.03;;;23.45;;
80621;SDS011;69980;51.914;7.526;2023-09-12T01:39:28;28.67;;;22.50;;
80621;SDS011;69980;51.914;7.526;2023-09-12T01:41:53;27.33;;;21.33;;
80621;SDS011;69980;51.914;7.526;2023-09-12T01:44:20;26.88;;;20.38;;
80621;SDS011;69980;51.914;7.526;2023-09-12T01:46:45;25.58;;;19.02;;
80621;SDS011;69980;51.914;7.526;2023-09-12T01:49:11;20.65;;;16.25;;
80621;SDS011;69980;51.914;7.526;2023-09-12T01:51:37;23.88;;;16.45;;
80621;SDS011;69980;51.914;7.526;2023-09-12T01:54:03;18.55;;;14.63;;
80621;SDS011;69980;51.914;7.526;2023-09-12T01:56:29;14.43;;;11.95;;
80621;SDS011;69980;51.914;7.526;2023-09-12T01:58:55;12.63;;;11.27;;
80621;SDS011;69980;51.914;7.526;2023-09-12T02:01:21;13.18;;;10.20;;
80621;SDS011;69980;51.914;7.526;2023-09-12T02:03:46;12.45;;;9.55;;
80621;SDS011;69980;51.914;7.526;2023-09-12T02:06:11;11.73;;;9.13;;
80621;SDS011;69980;51.914;7.526;2023-09-12T02:08:37;13.23;;;9.55;;
80621;SDS011;69980;51.914;7.526;2023-09-12T02:11:02;12.02;;;9.48;;
80621;SDS011;69980;51.914;7.526;2023-09-12T02:13:27;10.60;;;8.73;;
80621;SDS011;69980;51.914;7.526;2023-09-12T02:16:00;10.10;;;7.70;;
80621;SDS011;69980;51.914;7.526;2023-09-12T02:18:26;8.05;;;7.22;;
80621;SDS011;69980;51.914;7.526;2023-09-12T02:20:51;11.88;;;8.23;;
80621;SDS011;69980;51.914;7.526;2023-09-12T02:23:16;8.90;;;6.03;;
80621;SDS011;69980;51.914;7.526;2023-09-12T02:25:42;7.35;;;6.28;;
80621;SDS011;69980;51.914;7.526;2023-09-12T02:28:07;7.35;;;5.50;;
80621;SDS011;69980;51.914;7.526;2023-09-12T02:30:32;8.98;;;7.13;;
80621;SDS011;69980;51.914;7.526;2023-09-12T02:32:59;8.68;;;7.20;;
80621;SDS011;69980;51.914;7.526;2023-09-12T02:35:24;9.90;;;7.20;;
80621;SDS011;69980;51.914;7.526;2023-09-12T02:37:50;9.20;;;6.95;;
80621;SDS011;69980;51.914;7.526;2023-09-12T02:40:16;8.25;;;6.65;;
80621;SDS011;69980;51.914;7.526;2023-09-12T02:42:41;8.27;;;7.20;;
80621;SDS011;69980;51.914;7.526;2023-09-12T02:45:07;10.15;;;7.30;;
80621;SDS011;69980;51.914;7.526;2023-09-12T02:47:33;11.35;;;7.47;;
80621;SDS011;69980;51.914;7.526;2023-09-12T02:49:59;9.57;;;8.32;;
80621;SDS011;69980;51.914;7.526;2023-09-12T02:52:25;10.30;;;8.05;;
80621;SDS011;69980;51.914;7.526;2023-09-12T02:54:50;21.48;;;13.10;;
80621;SDS011;69980;51.914;7.526;2023-09-12T02:57:15;13.38;;;6.30;;
80621;SDS011;69980;51.914;7.526;2023-09-12T02:59:40;8.07;;;3.90;;
80621;SDS011;69980;51.914;7.526;2023-09-12T03:02:06;7.15;;;3.83;;
80621;SDS011;69980;51.914;7.526;2023-09-12T03:04:32;9.57;;;3.85;;
80621;SDS011;69980;51.914;7.526;2023-09-12T03:06:59;8.43;;;3.60;;
80621;SDS011;69980;51.914;7.526;2023-09-12T03:09:25;7.53;;;3.63;;
80621;SDS011;69980;51.914;7.526;2023-09-12T03:11:50;6.03;;;3.45;;
80621;SDS011;69980;51.914;7.526;2023-09-12T03:14:15;6.20;;;3.53;;
80621;SDS011;69980;51.914;7.526;2023-09-12T03:16:40;8.70;;;3.75;;
80621;SDS011;69980;51.914;7.526;2023-09-12T03:19:06;8.63;;;3.40;;
80621;SDS011;69980;51.914;7.526;2023-09-12T03:21:31;9.60;;;3.53;;
80621;SDS011;69980;51.914;7.526;2023-09-12T03:23:56;6.88;;;3.25;;
80621;SDS011;69980;51.914;7.526;2023-09-12T03:26:22;6.88;;;3.38;;
80621;SDS011;69980;51.914;7.526;2023-09-12T03:28:48;7.25;;;3.60;;
80621;SDS011;69980;51.914;7.526;2023-09-12T03:31:14;5.45;;;3.38;;
80621;SDS011;69980;51.914;7.526;2023-09-12T03:33:40;7.20;;;4.25;;
80621;SDS011;69980;51.914;7.526;2023-09-12T03:36:06;8.35;;;3.65;;
80621;SDS011;69980;51.914;7.526;2023-09-12T03:38:32;5.80;;;3.15;;
80621;SDS011;69980;51.914;7.526;2023-09-12T03:41:00;5.05;;;2.80;;
80621;SDS011;69980;51.914;7.526;2023-09-12T03:43:26;6.05;;;3.08;;
80621;SDS011;69980;51.914;7.526;2023-09-12T03:45:51;4.93;;;2.90;;
80621;SDS011;69980;51.914;7.526;2023-09-12T03:48:16;5.38;;;2.95;;
80621;SDS011;69980;51.914;7.526;2023-09-12T03:50:42;6.97;;;3.10;;
80621;SDS011;69980;51.914;7.526;2023-09-12T03:53:07;6.55;;;3.10;;
80621;SDS011;69980;51.914;7.526;2023-09-12T03:55:33;5.68;;;3.00;;
80621;SDS011;69980;51.914;7.526;2023-09-12T03:57:58;7.57;;;3.83;;
80621;SDS011;69980;51.914;7.526;2023-09-12T04:00:24;7.68;;;4.47;;
80621;SDS011;69980;51.914;7.526;2023-09-12T04:02:49;8.43;;;5.30;;
80621;SDS011;69980;51.914;7.526;2023-09-12T04:05:14;8.02;;;4.90;;
80621;SDS011;69980;51.914;7.526;2023-09-12T04:07:40;9.82;;;6.40;;
80621;SDS011;69980;51.914;7.526;2023-09-12T04:10:05;8.55;;;6.00;;
80621;SDS011;69980;51.914;7.526;2023-09-12T04:12:30;9.32;;;6.57;;
80621;SDS011;69980;51.914;7.526;2023-09-12T04:14:56;10.77;;;7.88;;
80621;SDS011;69980;51.914;7.526;2023-09-12T04:17:21;10.45;;;7.68;;
80621;SDS011;69980;51.914;7.526;2023-09-12T04:19:46;12.45;;;9.07;;
80621;SDS011;69980;51.914;7.526;2023-09-12T04:22:12;12.48;;;9.15;;
80621;SDS011;69980;51.914;7.526;2023-09-12T04:24:37;9.80;;;7.57;;
80621;SDS011;69980;51.914;7.526;2023-09-12T04:27:03;14.40;;;8.63;;
80621;SDS011;69980;51.914;7.526;2023-09-12T04:29:28;11.15;;;9.00;;
80621;SDS011;69980;51.914;7.526;2023-09-12T04:31:53;11.93;;;9.20;;
80621;SDS011;69980;51.914;7.526;2023-09-12T04:34:19;13.75;;;9.38;;
80621;SDS011;69980;51.914;7.526;2023-09-12T04:36:44;11.48;;;8.57;;
80621;SDS011;69980;51.914;7.526;2023-09-12T04:39:10;11.60;;;8.57;;
80621;SDS011;69980;51.914;7.526;2023-09-12T04:41:35;15.90;;;10.13;;
80621;SDS011;69980;51.914;7.526;2023-09-12T04:44:00;13.00;;;10.05;;
80621;SDS011;69980;51.914;7.526;2023-09-12T04:46:25;13.70;;;10.32;;
80621;SDS011;69980;51.914;7.526;2023-09-12T04:48:51;11.82;;;9.57;;
80621;SDS011;69980;51.914;7.526;2023-09-12T04:51:16;16.85;;;10.32;;
80621;SDS011;69980;51.914;7.526;2023-09-12T04:53:41;10.55;;;8.50;;
80621;SDS011;69980;51.914;7.526;2023-09-12T04:56:07;10.52;;;8.88;;
80621;SDS011;69980;51.914;7.526;2023-09-12T04:58:32;13.07;;;9.77;;
80621;SDS011;69980;51.914;7.526;2023-09-12T05:00:57;10.73;;;9.27;;
80621;SDS011;69980;51.914;7.526;2023-09-12T05:03:23;9.07;;;7.60;;
80621;SDS011;69980;51.914;7.526;2023-09-12T05:05:48;11.50;;;7.85;;
80621;SDS011;69980;51.914;7.526;2023-09-12T05:08:14;12.63;;;8.50;;
80621;SDS011;69980;51.914;7.526;2023-09-12T05:10:39;13.52;;;9.70;;
80621;SDS011;69980;51.914;7.526;2023-09-12T05:13:05;10.82;;;9.18;;
80621;SDS011;69980;51.914;7.526;2023-09-12T05:15:30;11.93;;;9.32;;
80621;SDS011;69980;51.914;7.526;2023-09-12T05:17:56;10.23;;;8.43;;
80621;SDS011;69980;51.914;7.526;2023-09-12T05:20:21;15.00;;;11.38;;
80621;SDS011;69980;51.914;7.526;2023-09-12T05:22:46;13.23;;;10.57;;
80621;SDS011;69980;51.914;7.526;2023-09-12T05:25:12;13.73;;;11.80;;
80621;SDS011;69980;51.914;7.526;2023-09-12T05:27:37;11.32;;;9.32;;
80621;SDS011;69980;51.914;7.526;2023-09-12T05:30:02;10.82;;;8.98;;
80621;SDS011;69980;51.914;7.526;2023-09-12T05:32:28;12.32;;;10.05;;
80621;SDS011;69980;51.914;7.526;2023-09-12T05:34:53;12.73;;;10.27;;
80621;SDS011;69980;51.914;7.526;2023-09-12T05:37:19;11.15;;;8.88;;
80621;SDS011;69980;51.914;7.526;2023-09-12T05:39:44;13.10;;;9.95;;
80621;SDS011;69980;51.914;7.526;2023-09-12T05:42:09;15.00;;;10.60;;
80621;SDS011;69980;51.914;7.526;2023-09-12T05:44:34;15.63;;;11.00;;
80621;SDS011;69980;51.914;7.526;2023-09-12T05:47:00;11.38;;;9.45;;
80621;SDS011;69980;51.914;7.526;2023-09-12T05:49:25;12.93;;;10.60;;
80621;SDS011;69980;51.914;7.526;2023-09-12T05:55:00;12.32;;;9.15;;
80621;SDS011;69980;51.914;7.526;2023-09-12T06:00:28;11.85;;;8.88;;
80621;SDS011;69980;51.914;7.526;2023-09-12T06:02:53;18.77;;;9.85;;
80621;SDS011;69980;51.914;7.526;2023-09-12T06:05:18;28.10;;;12.23;;
80621;SDS011;69980;51.914;7.526;2023-09-12T06:07:44;18.42;;;10.55;;
80621;SDS011;69980;51.914;7.526;2023-09-12T06:10:09;15.57;;;11.85;;
80621;SDS011;69980;51.914;7.526;2023-09-12T06:12:34;14.52;;;10.02;;
80621;SDS011;69980;51.914;7.526;2023-09-12T06:15:00;14.20;;;10.45;;
80621;SDS011;69980;51.914;7.526;2023-09-12T06:17:25;13.43;;;10.73;;
80621;SDS011;69980;51.914;7.526;2023-09-12T06:19:50;14.70;;;12.05;;
80621;SDS011;69980;51.914;7.526;2023-09-12T06:22:16;15.25;;;12.93;;
80621;SDS011;69980;51.914;7.526;2023-09-12T06:24:41;20.20;;;14.07;;
80621;SDS011;69980;51.914;7.526;2023-09-12T06:27:06;18.25;;;14.02;;
80621;SDS011;69980;51.914;7.526;2023-09-12T06:29:32;20.02;;;14.95;;
80621;SDS011;69980;51.914;7.526;2023-09-12T06:31:57;20.02;;;15.73;;
80621;SDS011;69980;51.914;7.526;2023-09-12T06:34:22;19.30;;;13.23;;
80621;SDS011;69980;51.914;7.526;2023-09-12T06:36:48;16.45;;;12.57;;
80621;SDS011;69980;51.914;7.526;2023-09-12T06:39:13;19.70;;;14.98;;
80621;SDS011;69980;51.914;7.526;2023-09-12T06:41:38;21.55;;;16.02;;
80621;SDS011;69980;51.914;7.526;2023-09-12T06:44:04;20.27;;;14.02;;
80621;SDS011;69980;51.914;7.526;2023-09-12T06:46:29;18.25;;;15.82;;
80621;SDS011;69980;51.914;7.526;2023-09-12T06:48:55;22.48;;;16.95;;
80621;SDS011;69980;51.914;7.526;2023-09-12T06:51:23;21.45;;;16.25;;
80621;SDS011;69980;51.914;7.526;2023-09-12T06:53:49;21.25;;;16.70;;
80621;SDS011;69980;51.914;7.526;2023-09-12T06:56:15;19.45;;;16.33;;
80621;SDS011;69980;51.914;7.526;2023-09-12T06:58:42;21.83;;;17.02;;
80621;SDS011;69980;51.914;7.526;2023-09-12T07:01:07;18.17;;;15.10;;
80621;SDS011;69980;51.914;7.526;2023-09-12T07:03:33;24.05;;;16.92;;
80621;SDS011;69980;51.914;7.526;2023-09-12T07:05:59;23.20;;;16.58;;
80621;SDS011;69980;51.914;7.526;2023-09-12T07:08:24;21.65;;;16.48;;
80621;SDS011;69980;51.914;7.526;2023-09-12T07:10:50;22.85;;;16.33;;
80621;SDS011;69980;51.914;7.526;2023-09-12T07:13:15;25.02;;;18.05;;
80621;SDS011;69980;51.914;7.526;2023-09-12T07:15:40;23.08;;;17.90;;
80621;SDS011;69980;51.914;7.526;2023-09-12T07:18:06;23.88;;;17.88;;
80621;SDS011;69980;51.914;7.526;2023-09-12T07:20:31;23.27;;;17.92;;
80621;SDS011;69980;51.914;7.526;2023-09-12T07:22:56;26.05;;;19.23;;
80621;SDS011;69980;51.914;7.526;2023-09-12T07:25:22;23.30;;;18.95;;
80621;SDS011;69980;51.914;7.526;2023-09-12T07:27:47;25.17;;;19.80;;
80621;SDS011;69980;51.914;7.526;2023-09-12T07:30:12;28.88;;;21.83;;
80621;SDS011;69980;51.914;7.526;2023-09-12T07:32:37;24.77;;;18.90;;
80621;SDS011;69980;51.914;7.526;2023-09-12T07:35:03;26.10;;;19.02;;
80621;SDS011;69980;51.914;7.526;2023-09-12T07:37:28;24.55;;;19.00;;
80621;SDS011;69980;51.914;7.526;2023-09-12T07:39:54;20.17;;;16.20;;
80621;SDS011;69980;51.914;7.526;2023-09-12T07:42:22;22.55;;;17.38;;
80621;SDS011;69980;51.914;7.526;2023-09-12T07:44:48;19.80;;;16.85;;
80621;SDS011;69980;51.914;7.526;2023-09-12T07:47:13;23.13;;;18.15;;
80621;SDS011;69980;51.914;7.526;2023-09-12T07:49:39;24.48;;;19.08;;
80621;SDS011;69980;51.914;7.526;2023-09-12T07:52:04;22.35;;;16.73;;
80621;SDS011;69980;51.914;7.526;2023-09-12T07:54:30;19.98;;;16.27;;
80621;SDS011;69980;51.914;7.526;2023-09-12T07:56:55;30.65;;;20.42;;
80621;SDS011;69980;51.914;7.526;2023-09-12T07:59:20;23.25;;;15.73;;
80621;SDS011;69980;51.914;7.526;2023-09-12T08:01:46;18.00;;;14.32;;
80621;SDS011;69980;51.914;7.526;2023-09-12T08:04:11;20.92;;;15.77;;
80621;SDS011;69980;51.914;7.526;2023-09-12T08:06:36;24.05;;;18.63;;
80621;SDS011;69980;51.914;7.526;2023-09-12T08:09:02;24.42;;;19.00;;
80621;SDS011;69980;51.914;7.526;2023-09-12T08:11:27;23.45;;;18.50;;
80621;SDS011;69980;51.914;7.526;2023-09-12T08:13:52;22.33;;;17.55;;
80621;SDS011;69980;51.914;7.526;2023-09-12T08:16:18;23.73;;;17.42;;
80621;SDS011;69980;51.914;7.526;2023-09-12T08:18:43;21.02;;;17.00;;
80621;SDS011;69980;51.914;7.526;2023-09-12T08:21:09;20.23;;;16.75;;
80621;SDS011;69980;51.914;7.526;2023-09-12T08:23:35;23.10;;;18.73;;
80621;SDS011;69980;51.914;7.526;2023-09-12T08:26:00;22.88;;;17.75;;
80621;SDS011;69980;51.914;7.526;2023-09-12T08:28:25;16.77;;;14.13;;
80621;SDS011;69980;51.914;7.526;2023-09-12T08:30:51;19.65;;;16.48;;
80621;SDS011;69980;51.914;7.526;2023-09-12T08:33:16;24.88;;;18.40;;
80621;SDS011;69980;51.914;7.526;2023-09-12T08:35:41;22.25;;;18.00;;
80621;SDS011;69980;51.914;7.526;2023-09-12T08:38:07;22.33;;;16.38;;
80621;SDS011;69980;51.914;7.526;2023-09-12T08:40:32;21.58;;;17.52;;
80621;SDS011;69980;51.914;7.526;2023-09-12T08:42:58;18.55;;;15.05;;
80621;SDS011;69980;51.914;7.526;2023-09-12T08:45:23;19.20;;;15.55;;
80621;SDS011;69980;51.914;7.526;2023-09-12T08:47:53;17.88;;;15.18;;
80621;SDS011;69980;51.914;7.526;2023-09-12T08:50:20;17.55;;;12.60;;
80621;SDS011;69980;51.914;7.526;2023-09-12T08:52:46;17.92;;;14.27;;
80621;SDS011;69980;51.914;7.526;2023-09-12T08:55:13;16.63;;;14.45;;
80621;SDS011;69980;51.914;7.526;2023-09-12T08:57:39;20.90;;;14.50;;
80621;SDS011;69980;51.914;7.526;2023-09-12T09:00:06;16.33;;;12.90;;
80621;SDS011;69980;51.914;7.526;2023-09-12T09:02:32;17.92;;;13.57;;
80621;SDS011;69980;51.914;7.526;2023-09-12T09:04:58;14.77;;;13.05;;
80621;SDS011;69980;51.914;7.526;2023-09-12T09:07:24;14.45;;;12.40;;
80621;SDS011;69980;51.914;7.526;2023-09-12T09:09:50;16.20;;;13.82;;
80621;SDS011;69980;51.914;7.526;2023-09-12T09:12:15;15.80;;;13.25;;
80621;SDS011;69980;51.914;7.526;2023-09-12T09:14:42;17.33;;;13.38;;
80621;SDS011;69980;51.914;7.526;2023-09-12T09:17:07;15.63;;;13.50;;
80621;SDS011;69980;51.914;7.526;2023-09-12T09:19:40;19.25;;;14.90;;
80621;SDS011;69980;51.914;7.526;2023-09-12T09:22:06;14.18;;;12.68;;
80621;SDS011;69980;51.914;7.526;2023-09-12T09:24:32;14.48;;;12.98;;
80621;SDS011;69980;51.914;7.526;2023-09-12T09:26:57;11.68;;;10.45;;
80621;SDS011;69980;51.914;7.526;2023-09-12T09:29:22;13.35;;;11.02;;
80621;SDS011;69980;51.914;7.526;2023-09-12T09:31:49;15.20;;;11.82;;
80621;SDS011;69980;51.914;7.526;2023-09-12T09:34:15;12.55;;;10.85;;
80621;SDS011;69980;51.914;7.526;2023-09-12T09:36:52;11.60;;;10.43;;
80621;SDS011;69980;51.914;7.526;2023-09-12T09:39:19;12.35;;;11.00;;
80621;SDS011;69980;51.914;7.526;2023-09-12T09:41:52;10.98;;;9.35;;
80621;SDS011;69980;51.914;7.526;2023-09-12T09:44:18;11.23;;;9.95;;
80621;SDS011;69980;51.914;7.526;2023-09-12T09:46:46;11.32;;;10.13;;
80621;SDS011;69980;51.914;7.526;2023-09-12T09:49:15;11.65;;;9.98;;
80621;SDS011;69980;51.914;7.526;2023-09-12T09:51:41;11.75;;;10.13;;
80621;SDS011;69980;51.914;7.526;2023-09-12T09:54:07;10.48;;;9.30;;
80621;SDS011;69980;51.914;7.526;2023-09-12T09:56:33;12.52;;;10.52;;
80621;SDS011;69980;51.914;7.526;2023-09-12T09:59:20;11.98;;;10.68;;
80621;SDS011;69980;51.914;7.526;2023-09-12T10:01:48;11.82;;;10.25;;
80621;SDS011;69980;51.914;7.526;2023-09-12T10:04:14;12.70;;;10.77;;
80621;SDS011;69980;51.914;7.526;2023-09-12T10:06:42;10.80;;;9.70;;
80621;SDS011;69980;51.914;7.526;2023-09-12T10:09:09;11.52;;;10.32;;
80621;SDS011;69980;51.914;7.526;2023-09-12T10:11:35;11.02;;;9.70;;
80621;SDS011;69980;51.914;7.526;2023-09-12T10:14:03;10.77;;;9.65;;
80621;SDS011;69980;51.914;7.526;2023-09-12T10:16:32;10.63;;;9.52;;
80621;SDS011;69980;51.914;7.526;2023-09-12T10:24:22;9.40;;;8.40;;
80621;SDS011;69980;51.914;7.526;2023-09-12T10:26:48;9.50;;;8.50;;
80621;SDS011;69980;51.914;7.526;2023-09-12T10:29:15;9.95;;;8.52;;
80621;SDS011;69980;51.914;7.526;2023-09-12T10:31:40;10.63;;;8.63;;
80621;SDS011;69980;51.914;7.526;2023-09-12T10:34:06;10.43;;;8.35;;
80621;SDS011;69980;51.914;7.526;2023-09-12T10:36:33;9.73;;;8.52;;
80621;SDS011;69980;51.914;7.526;2023-09-12T10:39:00;9.65;;;8.57;;
80621;SDS011;69980;51.914;7.526;2023-09-12T10:41:25;8.43;;;7.53;;
80621;SDS011;69980;51.914;7.526;2023-09-12T10:43:51;9.32;;;7.40;;
80621;SDS011;69980;51.914;7.526;2023-09-12T10:46:18;7.03;;;6.28;;
80621;SDS011;69980;51.914;7.526;2023-09-12T10:48:43;6.63;;;5.95;;
80621;SDS011;69980;51.914;7.526;2023-09-12T10:51:09;7.60;;;6.18;;
80621;SDS011;69980;51.914;7.526;2023-09-12T10:53:35;7.97;;;6.32;;
80621;SDS011;69980;51.914;7.526;2023-09-12T10:56:03;6.35;;;5.28;;
80621;SDS011;69980;51.914;7.526;2023-09-12T10:59:12;7.75;;;6.10;;
80621;SDS011;69980;51.914;7.526;2023-09-12T11:01:30;7.35;;;6.22;;
80621;SDS011;69980;51.914;7.526;2023-09-12T11:03:56;7.95;;;6.22;;
80621;SDS011;69980;51.914;7.526;2023-09-12T11:06:28;6.30;;;5.70;;
80621;SDS011;69980;51.914;7.526;2023-09-12T11:11:39;6.75;;;6.07;;
80621;SDS011;69980;51.914;7.526;2023-09-12T11:14:05;8.18;;;5.75;;
80621;SDS011;69980;51.914;7.526;2023-09-12T11:16:31;7.55;;;5.50;;
80621;SDS011;69980;51.914;7.526;2023-09-12T11:19:16;8.52;;;6.05;;
80621;SDS011;69980;51.914;7.526;2023-09-12T11:21:46;6.85;;;5.82;;
80621;SDS011;69980;51.914;7.526;2023-09-12T11:24:13;8.38;;;6.43;;
80621;SDS011;69980;51.914;7.526;2023-09-12T11:27:00;6.25;;;5.63;;
80621;SDS011;69980;51.914;7.526;2023-09-12T11:29:36;6.03;;;5.00;;
80621;SDS011;69980;51.914;7.526;2023-09-12T11:32:03;6.63;;;5.65;;
80621;SDS011;69980;51.914;7.526;2023-09-12T11:34:30;7.55;;;5.78;;
80621;SDS011;69980;51.914;7.526;2023-09-12T11:37:01;5.78;;;5.10;;
80621;SDS011;69980;51.914;7.526;2023-09-12T11:39:31;21.30;;;6.55;;
80621;SDS011;69980;51.914;7.526;2023-09-12T11:41:58;19.83;;;6.80;;
80621;SDS011;69980;51.914;7.526;2023-09-12T11:44:24;6.72;;;5.13;;
80621;SDS011;69980;51.914;7.526;2023-09-12T11:46:50;27.80;;;8.05;;
80621;SDS011;69980;51.914;7.526;2023-09-12T11:49:15;8.25;;;6.13;;
80621;SDS011;69980;51.914;7.526;2023-09-12T11:51:53;8.52;;;5.85;;
80621;SDS011;69980;51.914;7.526;2023-09-12T11:54:19;7.53;;;5.63;;
80621;SDS011;69980;51.914;7.526;2023-09-12T11:56:49;7.28;;;5.45;;
80621;SDS011;69980;51.914;7.526;2023-09-12T11:59:14;7.43;;;6.30;;
80621;SDS011;69980;51.914;7.526;2023-09-12T12:01:40;7.03;;;6.15;;
80621;SDS011;69980;51.914;7.526;2023-09-12T12:04:06;7.78;;;5.53;;
80621;SDS011;69980;51.914;7.526;2023-09-12T12:06:31;7.15;;;6.15;;
80621;SDS011;69980;51.914;7.526;2023-09-12T12:08:56;8.07;;;5.65;;
80621;SDS011;69980;51.914;7.526;2023-09-12T12:11:22;8.13;;;5.57;;
80621;SDS011;69980;51.914;7.526;2023-09-12T12:13:52;9.82;;;5.20;;
80621;SDS011;69980;51.914;7.526;2023-09-12T12:16:18;6.40;;;5.80;;
80621;SDS011;69980;51.914;7.526;2023-09-12T12:18:43;7.05;;;5.43;;
80621;SDS011;69980;51.914;7.526;2023-09-12T12:21:08;7.00;;;6.13;;
80621;SDS011;69980;51.914;7.526;2023-09-12T12:23:34;6.82;;;6.20;;
80621;SDS011;69980;51.914;7.526;2023-09-12T12:26:08;6.57;;;5.88;;
80621;SDS011;69980;51.914;7.526;2023-09-12T12:28:37;6.63;;;4.88;;
80621;SDS011;69980;51.914;7.526;2023-09-12T12:31:03;6.32;;;4.18;;
80621;SDS011;69980;51.914;7.526;2023-09-12T12:33:29;5.38;;;4.30;;
80621;SDS011;69980;51.914;7.526;2023-09-12T12:36:01;5.20;;;4.68;;
80621;SDS011;69980;51.914;7.526;2023-09-12T12:38:27;6.00;;;4.90;;
80621;SDS011;69980;51.914;7.526;2023-09-12T12:40:52;6.30;;;4.38;;
80621;SDS011;69980;51.914;7.526;2023-09-12T12:43:17;5.60;;;4.97;;
80621;SDS011;69980;51.914;7.526;2023-09-12T12:45:51;5.53;;;4.50;;
80621;SDS011;69980;51.914;7.526;2023-09-12T12:48:17;5.47;;;4.70;;
80621;SDS011;69980;51.914;7.526;2023-09-12T12:50:54;5.50;;;4.13;;
80621;SDS011;69980;51.914;7.526;2023-09-12T12:53:36;6.78;;;4.60;;
80621;SDS011;69980;51.914;7.526;2023-09-12T12:56:02;4.40;;;4.00;;
80621;SDS011;69980;51.914;7.526;2023-09-12T12:58:27;4.63;;;4.13;;
80621;SDS011;69980;51.914;7.526;2023-09-12T13:00:53;5.72;;;4.40;;
80621;SDS011;69980;51.914;7.526;2023-09-12T13:03:18;6.22;;;4.57;;
80621;SDS011;69980;51.914;7.526;2023-09-12T13:05:43;5.22;;;4.57;;
80621;SDS011;69980;51.914;7.526;2023-09-12T13:08:08;5.00;;;4.50;;
80621;SDS011;69980;51.914;7.526;2023-09-12T13:10:34;6.55;;;4.82;;
80621;SDS011;69980;51.914;7.526;2023-09-12T13:12:59;5.32;;;4.45;;
80621;SDS011;69980;51.914;7.526;2023-09-12T13:15:24;6.13;;;4.90;;
80621;SDS011;69980;51.914;7.526;2023-09-12T13:17:50;5.28;;;4.70;;
80621;SDS011;69980;51.914;7.526;2023-09-12T13:20:15;5.90;;;4.93;;
80621;SDS011;69980;51.914;7.526;2023-09-12T13:22:40;6.40;;;4.65;;
80621;SDS011;69980;51.914;7.526;2023-09-12T13:25:06;8.43;;;4.72;;
80621;SDS011;69980;51.914;7.526;2023-09-12T13:27:31;6.03;;;4.70;;
80621;SDS011;69980;51.914;7.526;2023-09-12T13:29:57;6.25;;;4.53;;
80621;SDS011;69980;51.914;7.526;2023-09-12T13:32:22;6.13;;;4.70;;
80621;SDS011;69980;51.914;7.526;2023-09-12T13:34:47;5.30;;;4.63;;
80621;SDS011;69980;51.914;7.526;2023-09-12T13:37:13;6.90;;;5.20;;
80621;SDS011;69980;51.914;7.526;2023-09-12T13:39:38;6.05;;;4.70;;
80621;SDS011;69980;51.914;7.526;2023-09-12T13:42:05;6.75;;;5.22;;
80621;SDS011;69980;51.914;7.526;2023-09-12T13:44:31;5.43;;;4.07;;
80621;SDS011;69980;51.914;7.526;2023-09-12T13:46:56;5.07;;;3.88;;
80621;SDS011;69980;51.914;7.526;2023-09-12T13:49:21;5.95;;;4.72;;
80621;SDS011;69980;51.914;7.526;2023-09-12T13:51:47;5.47;;;4.90;;
80621;SDS011;69980;51.914;7.526;2023-09-12T13:54:12;6.10;;;5.50;;
80621;SDS011;69980;51.914;7.526;2023-09-12T13:56:37;6.88;;;5.05;;
80621;SDS011;69980;51.914;7.526;2023-09-12T13:59:03;6.95;;;5.00;;
80621;SDS011;69980;51.914;7.526;2023-09-12T14:01:28;6.07;;;4.10;;
80621;SDS011;69980;51.914;7.526;2023-09-12T14:03:53;5.68;;;4.20;;
80621;SDS011;69980;51.914;7.526;2023-09-12T14:06:22;5.55;;;4.10;;
80621;SDS011;69980;51.914;7.526;2023-09-12T14:08:48;5.30;;;4.40;;
80621;SDS011;69980;51.914;7.526;2023-09-12T14:11:14;7.18;;;5.00;;
80621;SDS011;69980;51.914;7.526;2023-09-12T14:13:41;6.18;;;4.40;;
80621;SDS011;69980;51.914;7.526;2023-09-12T14:16:06;6.88;;;4.72;;
80621;SDS011;69980;51.914;7.526;2023-09-12T14:18:31;5.15;;;4.50;;
80621;SDS011;69980;51.914;7.526;2023-09-12T14:20:57;5.07;;;3.90;;
80621;SDS011;69980;51.914;7.526;2023-09-12T14:23:22;5.22;;;4.00;;
80621;SDS011;69980;51.914;7.526;2023-09-12T14:25:48;5.43;;;3.83;;
80621;SDS011;69980;51.914;7.526;2023-09-12T14:28:13;5.55;;;4.72;;
80621;SDS011;69980;51.914;7.526;2023-09-12T14:30:41;8.43;;;5.60;;
80621;SDS011;69980;51.914;7.526;2023-09-12T14:33:08;5.38;;;4.30;;
80621;SDS011;69980;51.914;7.526;2023-09-12T14:35:33;5.82;;;5.10;;
80621;SDS011;69980;51.914;7.526;2023-09-12T14:37:58;6.60;;;4.13;;
80621;SDS011;69980;51.914;7.526;2023-09-12T14:40:24;5.55;;;4.20;;
80621;SDS011;69980;51.914;7.526;2023-09-12T14:42:49;4.93;;;3.88;;
80621;SDS011;69980;51.914;7.526;2023-09-12T14:45:14;4.75;;;4.25;;
80621;SDS011;69980;51.914;7.526;2023-09-12T14:47:40;4.30;;;3.65;;